Cass City, Michigan
Current Conditions -  °F | °C
As of 1:16 PM on Wednesday 26 Nov 2014 (Local Time) from KBAX Reporting Station
Overcast Overcast  
Wind Chill: 31°   Ceiling: 2800
Heat Index: 31°   Visibility: 10mi
Dew Point: 24°   Wind: 0mph
Humidity: 74%   Direction: NA
Pressure: 30.13"   Gusts: NA
Location:  43.6°N, 83.17°W
Report Text: KBAX 261816Z AUTO 00000KT 10SM OVC028 00/M05 A3013 RMK AO2 T10051047
Loading
Personal Weather Stations






























Interactive Weather Map New forecast layout! Learn more

10-Day Weather Forecast

Advertisements
Track Severe Weather on mobile